This is the latest recevied weather packets stored in our database for station/object HA6IFZ-10. If no packets are shown the sender has not sent any weather packets the latest 10 day(s).
| Time | Temp. | Humidity | Pressure | Rain* | Wind** | Luminosity | Snow |
|---|---|---|---|---|---|---|---|
| 1788090492 | 31.67° C | 23% | 1024.6 hPa | - | - | - | - |
| 1788089592 | 31.67° C | 24% | 1024.5 hPa | - | - | - | - |
| 1788088692 | 31.11° C | 25% | 1024.7 hPa | - | - | - | - |
| 1788086893 | 30° C | 26% | 1024.9 hPa | - | - | - | - |
| 1788085993 | 28.89° C | 25% | 1025 hPa | - | - | - | - |
| 1788085093 | 30° C | 28% | 1025 hPa | - | - | - | - |
| 1788084193 | 30° C | 28% | 1025 hPa | - | - | - | - |
| 1788083293 | 29.44° C | 29% | 1025.2 hPa | - | - | - | - |
| 1788082393 | 30° C | 31% | 1025.2 hPa | - | - | - | - |
| 1788081493 | 28.33° C | 33% | 1025.3 hPa | - | - | - | - |
| 1788080593 | 28.89° C | 34% | 1025.4 hPa | - | - | - | - |
| 1788079693 | 27.78° C | 35% | 1025.4 hPa | - | - | - | - |
| 1788078792 | 27.78° C | 37% | 1025.6 hPa | - | - | - | - |
| 1788077892 | 27.78° C | 38% | 1025.6 hPa | - | - | - | - |
| 1788076992 | 27.22° C | 38% | 1025.7 hPa | - | - | - | - |
| 1788076092 | 27.22° C | 38% | 1025.6 hPa | - | - | - | - |
| 1788075192 | 27.22° C | 38% | 1025.6 hPa | - | - | - | - |
| 1788074292 | 26.67° C | 39% | 1025.5 hPa | - | - | - | - |
| 1788073392 | 26.67° C | 41% | 1025.4 hPa | - | - | - | - |
| 1788072492 | 25° C | 48% | 1025.3 hPa | - | - | - | - |
| 1788071592 | 25° C | 49% | 1025.1 hPa | - | - | - | - |
| 1788070692 | 23.89° C | 53% | 1025.1 hPa | - | - | - | - |
| 1788069791 | 27.78° C | 39% | 1025 hPa | - | - | - | - |
| 1788068891 | 29.44° C | 36% | 1024.9 hPa | - | - | - | - |
| 1788067991 | 28.89° C | 36% | 1024.8 hPa | - | - | - | - |
* Rain since midnight (hover to see other rain measurements)
** Current wind speed in m/s (hover to see current wind gust speed)